createdAt,value
2023-01-27T00:00:53.824Z,10.80
2023-01-27T00:03:21.113Z,21.90
2023-01-27T00:05:48.531Z,10.73
2023-01-27T00:08:16.067Z,11.37
2023-01-27T00:10:42.976Z,8.17
2023-01-27T00:13:32.238Z,16.57
2023-01-27T00:15:59.547Z,19.87
2023-01-27T00:18:26.427Z,8.73
2023-01-27T00:21:11.829Z,14.70
2023-01-27T00:23:57.560Z,13.53
2023-01-27T00:26:24.392Z,18.93
2023-01-27T00:28:51.320Z,11.43
2023-01-27T00:31:37.650Z,10.93
2023-01-27T00:34:11.551Z,8.00
2023-01-27T00:36:40.222Z,5.17
2023-01-27T00:39:08.772Z,12.17
2023-01-27T00:41:36.214Z,19.53
2023-01-27T00:44:03.090Z,14.30
2023-01-27T00:46:30.001Z,17.20
2023-01-27T00:48:56.997Z,8.57
2023-01-27T00:51:24.683Z,8.90
2023-01-27T00:53:51.457Z,19.57
2023-01-27T00:56:18.841Z,7.30
2023-01-27T00:58:45.942Z,10.87
2023-01-27T01:01:15.195Z,12.27
2023-01-27T01:03:42.017Z,12.73
2023-01-27T01:06:10.796Z,10.27
2023-01-27T01:08:38.077Z,13.93
2023-01-27T01:11:06.214Z,8.70
2023-01-27T01:13:33.740Z,20.70
2023-01-27T01:16:13.553Z,15.23
2023-01-27T01:18:41.494Z,18.60
2023-01-27T01:21:09.518Z,10.23
2023-01-27T01:23:44.493Z,14.90
2023-01-27T01:26:12.778Z,9.00
2023-01-27T01:28:39.634Z,6.77
2023-01-27T01:31:15.136Z,6.07
2023-01-27T01:33:41.898Z,11.23
2023-01-27T01:36:15.348Z,10.03
2023-01-27T01:38:42.843Z,11.83
2023-01-27T01:41:13.496Z,10.73
2023-01-27T01:43:41.669Z,10.97
2023-01-27T01:46:12.415Z,8.50
2023-01-27T01:48:56.594Z,7.90
2023-01-27T01:51:39.484Z,20.53
2023-01-27T01:54:16.358Z,9.30
2023-01-27T01:56:47.434Z,13.07
2023-01-27T01:59:26.609Z,8.70
2023-01-27T02:01:55.688Z,11.93
2023-01-27T02:04:25.506Z,10.10
2023-01-27T02:07:01.193Z,12.23
2023-01-27T02:09:28.508Z,5.90
2023-01-27T02:11:55.916Z,14.97
2023-01-27T02:14:22.935Z,12.03
2023-01-27T02:16:49.927Z,7.53
2023-01-27T02:19:26.039Z,10.17
2023-01-27T02:21:55.542Z,10.73
2023-01-27T02:24:27.363Z,12.13
2023-01-27T02:26:54.358Z,8.20
2023-01-27T02:29:22.881Z,7.30
2023-01-27T02:31:50.041Z,5.87
2023-01-27T02:34:21.057Z,12.23
2023-01-27T02:36:54.551Z,11.57
2023-01-27T02:39:25.787Z,11.47
2023-01-27T02:41:55.319Z,10.37
2023-01-27T02:44:22.111Z,5.07
2023-01-27T02:46:48.975Z,5.77
2023-01-27T02:49:15.897Z,14.20
2023-01-27T02:51:42.840Z,10.27
2023-01-27T02:54:10.640Z,8.53
2023-01-27T02:56:37.404Z,10.53
2023-01-27T02:59:04.256Z,9.30
2023-01-27T03:01:38.471Z,7.07
2023-01-27T03:04:06.171Z,13.53
2023-01-27T03:06:33.896Z,10.23
2023-01-27T03:09:00.877Z,7.60
2023-01-27T03:11:46.704Z,10.23
2023-01-27T03:14:13.683Z,15.60
2023-01-27T03:16:59.145Z,13.57
2023-01-27T03:19:29.707Z,11.87
2023-01-27T03:21:56.669Z,13.80
2023-01-27T03:24:24.825Z,11.53
2023-01-27T03:26:54.723Z,15.87
2023-01-27T03:29:47.913Z,4.70
2023-01-27T03:32:15.014Z,8.93
2023-01-27T03:34:51.580Z,7.10
2023-01-27T03:37:47.747Z,8.13
2023-01-27T03:40:33.855Z,7.83
2023-01-27T03:43:20.466Z,8.43
2023-01-27T03:46:07.556Z,10.10
2023-01-27T03:48:35.039Z,11.80
2023-01-27T03:51:03.833Z,4.97
2023-01-27T03:53:30.929Z,5.83
2023-01-27T03:55:57.696Z,8.30
2023-01-27T03:58:27.051Z,7.33
2023-01-27T04:00:58.830Z,5.80
2023-01-27T04:03:47.078Z,10.80
2023-01-27T04:06:38.185Z,6.60
2023-01-27T04:09:07.994Z,9.77
2023-01-27T04:11:53.544Z,8.17
2023-01-27T04:14:20.559Z,10.43
2023-01-27T04:16:47.449Z,7.10
2023-01-27T04:19:14.399Z,8.47
2023-01-27T04:21:41.683Z,8.03
2023-01-27T04:24:09.000Z,10.57
2023-01-27T04:26:36.062Z,6.90
2023-01-27T04:29:04.249Z,6.00
2023-01-27T04:31:32.729Z,6.33
2023-01-27T04:33:59.815Z,8.03
2023-01-27T04:36:26.842Z,10.90
2023-01-27T04:38:53.855Z,7.07
2023-01-27T04:41:20.916Z,8.20
2023-01-27T04:43:47.933Z,10.07
2023-01-27T04:46:14.700Z,5.70
2023-01-27T04:48:41.507Z,11.17
2023-01-27T04:51:08.405Z,8.17
2023-01-27T04:53:35.147Z,7.70
2023-01-27T04:56:04.437Z,7.00
2023-01-27T04:58:31.309Z,10.17
2023-01-27T05:00:58.100Z,9.90
2023-01-27T05:03:25.003Z,19.07
2023-01-27T05:05:52.307Z,8.60
2023-01-27T05:08:19.127Z,7.93
2023-01-27T05:10:45.967Z,10.90
2023-01-27T05:13:12.736Z,10.23
2023-01-27T05:15:39.514Z,9.53
2023-01-27T05:18:06.357Z,7.67
2023-01-27T05:20:33.282Z,15.97
2023-01-27T05:23:18.664Z,9.70
2023-01-27T05:25:45.505Z,12.33
2023-01-27T05:28:12.454Z,8.60
2023-01-27T05:30:39.553Z,12.57
2023-01-27T05:33:08.591Z,11.27
2023-01-27T05:35:35.462Z,7.27
2023-01-27T05:38:02.434Z,14.03
2023-01-27T05:40:29.221Z,12.37
2023-01-27T05:42:56.078Z,10.57
2023-01-27T05:45:23.145Z,12.13
2023-01-27T05:47:51.371Z,17.47
2023-01-27T05:50:18.974Z,12.00
2023-01-27T05:52:46.031Z,8.80
2023-01-27T05:55:13.012Z,10.47
2023-01-27T05:57:39.965Z,9.80
2023-01-27T06:00:08.551Z,14.43
2023-01-27T06:02:35.259Z,10.20
2023-01-27T06:05:02.064Z,14.57
2023-01-27T06:07:28.797Z,12.53
2023-01-27T06:09:55.884Z,9.13
2023-01-27T06:12:22.690Z,10.33
2023-01-27T06:14:49.526Z,9.47
2023-01-27T06:17:16.425Z,7.43
2023-01-27T06:19:43.155Z,11.77
2023-01-27T06:22:10.212Z,15.47
2023-01-27T06:24:37.663Z,14.03
2023-01-27T06:27:04.519Z,14.57
2023-01-27T06:29:31.337Z,8.97
2023-01-27T06:31:58.633Z,18.63
2023-01-27T06:34:25.838Z,12.60
2023-01-27T06:36:55.763Z,15.03
2023-01-27T06:39:23.388Z,13.40
2023-01-27T06:41:50.423Z,11.70
2023-01-27T06:44:17.328Z,10.67
2023-01-27T06:46:44.129Z,12.63
2023-01-27T06:49:11.082Z,12.60
2023-01-27T06:51:37.780Z,14.93
2023-01-27T06:54:05.518Z,8.30
2023-01-27T06:56:32.311Z,8.73
2023-01-27T06:58:59.092Z,11.07
2023-01-27T07:01:26.011Z,9.30
2023-01-27T07:03:52.988Z,8.17
2023-01-27T07:06:20.440Z,7.67
2023-01-27T07:08:47.544Z,10.97
2023-01-27T07:11:14.784Z,7.80
2023-01-27T07:13:41.558Z,11.77
2023-01-27T07:16:08.506Z,10.02
2023-01-27T07:18:35.419Z,10.00
2023-01-27T07:21:05.489Z,8.37
2023-01-27T07:23:32.495Z,9.93
2023-01-27T07:26:03.005Z,10.23
2023-01-27T07:28:32.521Z,10.13
2023-01-27T07:31:03.552Z,10.40
2023-01-27T07:33:30.451Z,11.57
2023-01-27T07:35:57.382Z,11.50
2023-01-27T07:38:24.289Z,11.60
2023-01-27T07:40:51.081Z,10.73
2023-01-27T07:43:18.055Z,12.43
2023-01-27T07:45:49.111Z,12.00
2023-01-27T07:48:17.862Z,12.20
2023-01-27T07:50:44.653Z,12.60
2023-01-27T07:53:11.942Z,11.77
2023-01-27T07:55:38.585Z,14.20
2023-01-27T07:58:05.735Z,10.87
2023-01-27T08:00:32.907Z,12.77
2023-01-27T08:03:00.582Z,12.90
2023-01-27T08:05:27.826Z,12.80
2023-01-27T08:07:58.481Z,11.93
2023-01-27T08:10:51.470Z,10.60
2023-01-27T08:13:18.636Z,10.13
2023-01-27T08:15:56.167Z,11.37
2023-01-27T08:18:23.219Z,19.10
2023-01-27T08:20:49.987Z,11.70
2023-01-27T08:23:18.477Z,9.10
2023-01-27T08:25:52.685Z,11.43
2023-01-27T08:28:20.357Z,9.27
2023-01-27T08:30:47.449Z,10.23
2023-01-27T08:33:14.459Z,11.53
2023-01-27T08:35:44.676Z,12.47
2023-01-27T08:38:21.972Z,12.63
2023-01-27T08:40:50.056Z,12.27
2023-01-27T08:43:17.431Z,12.73
2023-01-27T08:45:44.915Z,11.83
2023-01-27T08:48:12.414Z,12.30
2023-01-27T08:50:39.443Z,10.63
2023-01-27T08:53:06.601Z,12.47
2023-01-27T08:55:33.875Z,10.83
2023-01-27T08:58:00.660Z,13.13
2023-01-27T09:00:27.437Z,11.63
2023-01-27T09:02:54.283Z,12.30
2023-01-27T09:05:22.431Z,11.20
2023-01-27T09:07:49.469Z,15.47
2023-01-27T09:10:17.129Z,12.73
2023-01-27T09:12:44.746Z,14.30
2023-01-27T09:15:13.111Z,9.80
2023-01-27T09:17:40.749Z,9.27
2023-01-27T09:20:08.534Z,10.87
2023-01-27T09:22:42.172Z,8.73
2023-01-27T09:25:15.483Z,8.73
2023-01-27T09:27:44.488Z,9.13
2023-01-27T09:30:18.558Z,9.00
2023-01-27T09:32:45.575Z,11.07
2023-01-27T09:35:12.646Z,8.17
2023-01-27T09:37:45.043Z,8.67
2023-01-27T09:40:41.947Z,9.57
2023-01-27T09:43:56.324Z,7.97
2023-01-27T09:46:51.002Z,7.70
2023-01-27T09:49:48.045Z,8.70
2023-01-27T09:52:47.616Z,8.37
2023-01-27T09:55:31.001Z,6.90
2023-01-27T09:58:28.193Z,4.97
2023-01-27T10:01:07.935Z,6.33
2023-01-27T10:03:53.381Z,5.43
2023-01-27T10:06:39.371Z,6.80
2023-01-27T10:09:18.859Z,6.47
2023-01-27T10:11:48.837Z,7.27
2023-01-27T10:14:25.961Z,5.80
2023-01-27T10:17:21.220Z,5.03
2023-01-27T10:20:20.055Z,6.23
2023-01-27T10:22:56.327Z,8.00
2023-01-27T10:25:30.596Z,6.00
2023-01-27T10:27:59.135Z,6.80
2023-01-27T10:30:37.220Z,6.57
2023-01-27T10:33:18.462Z,7.90
2023-01-27T10:35:53.342Z,6.43
2023-01-27T10:38:38.551Z,7.50
2023-01-27T10:41:27.425Z,5.63
2023-01-27T10:44:09.600Z,6.30
2023-01-27T10:46:59.173Z,7.23
2023-01-27T10:49:35.209Z,7.53
2023-01-27T10:52:04.995Z,6.23
2023-01-27T10:55:12.283Z,4.97
2023-01-27T10:57:46.004Z,5.10
2023-01-27T11:01:18.863Z,4.57
2023-01-27T11:04:02.139Z,4.30
2023-01-27T11:06:32.934Z,6.43
2023-01-27T11:09:16.194Z,6.57
2023-01-27T11:11:46.613Z,5.50
2023-01-27T11:14:17.852Z,7.60
2023-01-27T11:16:51.229Z,6.40
2023-01-27T11:19:43.097Z,6.50
2023-01-27T11:22:19.052Z,5.53
2023-01-27T11:24:50.380Z,7.67
2023-01-27T11:27:27.715Z,4.67
2023-01-27T11:30:13.932Z,6.07
2023-01-27T11:32:59.341Z,7.73
2023-01-27T11:35:26.823Z,7.63
2023-01-27T11:38:00.596Z,5.73
2023-01-27T11:40:31.984Z,6.93
2023-01-27T11:42:59.985Z,8.50
2023-01-27T11:45:28.155Z,6.90
2023-01-27T11:47:58.081Z,8.63
2023-01-27T11:50:29.214Z,5.93
2023-01-27T11:53:12.072Z,6.33
2023-01-27T11:55:42.811Z,8.57
2023-01-27T11:58:14.905Z,6.77
2023-01-27T12:00:45.694Z,5.73
2023-01-27T12:03:20.437Z,5.07
2023-01-27T12:06:10.454Z,6.70
2023-01-27T12:08:44.804Z,4.73
2023-01-27T12:11:28.966Z,4.57
2023-01-27T12:14:01.038Z,5.53
2023-01-27T12:16:43.144Z,4.67
2023-01-27T12:19:28.113Z,5.10
2023-01-27T12:22:01.522Z,5.47
2023-01-27T12:24:31.337Z,8.50
2023-01-27T12:26:59.129Z,7.40
2023-01-27T12:29:43.496Z,4.70
2023-01-27T12:32:35.052Z,6.10
2023-01-27T12:35:02.647Z,5.07
2023-01-27T12:37:36.809Z,5.87
2023-01-27T12:40:06.363Z,5.10
2023-01-27T12:42:43.288Z,6.90
2023-01-27T12:45:30.544Z,5.37
2023-01-27T12:48:09.594Z,5.87
2023-01-27T12:50:37.375Z,5.03
2023-01-27T12:53:08.811Z,5.60
2023-01-27T12:55:44.418Z,6.20
2023-01-27T12:58:34.074Z,5.83
2023-01-27T13:01:04.647Z,5.83
2023-01-27T13:03:32.595Z,5.37
2023-01-27T13:05:59.729Z,5.33
2023-01-27T13:08:27.874Z,4.47
2023-01-27T13:11:00.188Z,4.47
2023-01-27T13:13:29.159Z,5.77
2023-01-27T13:15:58.279Z,6.87
2023-01-27T13:18:25.362Z,4.50
2023-01-27T13:20:57.055Z,4.73
2023-01-27T13:23:30.838Z,5.60
2023-01-27T13:26:12.108Z,3.50
2023-01-27T13:29:03.067Z,5.73
2023-01-27T13:31:40.042Z,5.53
2023-01-27T13:34:10.036Z,7.43
2023-01-27T13:36:40.740Z,3.87
2023-01-27T13:39:17.969Z,3.20
2023-01-27T13:42:19.154Z,2.97
2023-01-27T13:44:50.279Z,5.80
2023-01-27T13:47:22.823Z,4.50
2023-01-27T13:50:18.221Z,4.13
2023-01-27T13:52:46.894Z,4.53
2023-01-27T13:55:14.401Z,3.50
2023-01-27T13:57:50.115Z,4.93
2023-01-27T14:00:21.652Z,4.97
2023-01-27T14:03:18.235Z,5.33
2023-01-27T14:06:03.895Z,3.97
2023-01-27T14:08:42.881Z,7.63
2023-01-27T14:11:30.229Z,3.67
2023-01-27T14:14:56.055Z,4.23
2023-01-27T14:17:48.458Z,5.97
2023-01-27T14:20:21.657Z,4.23
2023-01-27T14:23:03.760Z,5.00
2023-01-27T14:26:07.241Z,4.57
2023-01-27T14:28:55.613Z,5.90
2023-01-27T14:31:37.909Z,4.07
2023-01-27T14:34:13.888Z,4.90
2023-01-27T14:36:52.840Z,5.20
2023-01-27T14:39:44.436Z,3.50
2023-01-27T14:42:49.420Z,3.50
2023-01-27T14:45:25.837Z,5.27
2023-01-27T14:47:52.552Z,3.73
2023-01-27T14:50:34.504Z,5.27
2023-01-27T14:53:08.336Z,5.07
2023-01-27T14:55:50.836Z,5.47
2023-01-27T14:58:28.531Z,4.33
2023-01-27T15:01:51.583Z,3.60
2023-01-27T15:04:57.110Z,3.47
2023-01-27T15:07:36.086Z,4.73
2023-01-27T15:10:27.778Z,9.00
2023-01-27T15:13:03.699Z,5.00
2023-01-27T15:15:57.335Z,5.20
2023-01-27T15:18:51.328Z,6.83
2023-01-27T15:21:30.433Z,5.63
2023-01-27T15:24:31.202Z,4.57
2023-01-27T15:26:58.797Z,4.67
2023-01-27T15:29:27.413Z,4.63
2023-01-27T15:32:26.107Z,4.97
2023-01-27T15:34:56.149Z,6.60
2023-01-27T15:37:25.023Z,6.87
2023-01-27T15:40:16.696Z,8.57
2023-01-27T15:43:02.233Z,6.37
2023-01-27T15:45:42.363Z,6.13
2023-01-27T15:48:22.379Z,4.60
2023-01-27T15:50:54.650Z,5.53
2023-01-27T15:53:32.693Z,5.37
2023-01-27T15:56:00.749Z,5.43
2023-01-27T15:58:42.256Z,5.87
2023-01-27T16:01:11.869Z,5.00
2023-01-27T16:03:45.010Z,5.77
2023-01-27T16:06:16.630Z,4.53
2023-01-27T16:08:57.893Z,4.70
2023-01-27T16:11:30.637Z,4.57
2023-01-27T16:14:12.849Z,4.40
2023-01-27T16:17:16.147Z,5.10
2023-01-27T16:23:37.916Z,5.00
2023-01-27T16:26:45.163Z,4.37
2023-01-27T16:29:39.904Z,5.37
2023-01-27T16:32:18.995Z,4.97
2023-01-27T16:35:22.928Z,4.47
2023-01-27T16:41:38.354Z,5.47
2023-01-27T16:44:41.520Z,6.57
2023-01-27T16:47:20.435Z,5.30
2023-01-27T16:53:33.768Z,5.73
2023-01-27T16:56:08.155Z,6.97
2023-01-27T16:59:24.619Z,5.90
2023-01-27T17:02:24.149Z,5.37
2023-01-27T17:05:09.732Z,5.00
2023-01-27T17:08:39.644Z,5.40
2023-01-27T17:12:22.975Z,6.73
2023-01-27T17:14:55.137Z,9.23
2023-01-27T17:20:37.370Z,5.67
2023-01-27T17:23:07.699Z,5.07
2023-01-27T17:25:42.436Z,8.47
2023-01-27T17:28:20.141Z,8.00
2023-01-27T17:30:48.226Z,6.33
2023-01-27T17:33:19.624Z,5.83
2023-01-27T17:35:55.156Z,7.10
2023-01-27T17:38:24.652Z,6.50
2023-01-27T17:40:53.976Z,6.90
2023-01-27T17:43:41.127Z,5.60
2023-01-27T17:46:13.649Z,8.10
2023-01-27T17:48:44.225Z,6.20
2023-01-27T17:51:14.387Z,7.83
2023-01-27T17:53:42.836Z,6.57
2023-01-27T17:56:38.510Z,10.03
2023-01-27T17:59:11.811Z,6.37
2023-01-27T18:01:40.407Z,10.10
2023-01-27T18:04:07.591Z,7.13
2023-01-27T18:06:35.708Z,8.17
2023-01-27T18:09:23.038Z,8.03
2023-01-27T18:11:58.217Z,7.17
2023-01-27T18:14:25.216Z,6.80
2023-01-27T18:17:01.590Z,5.07
2023-01-27T18:19:29.089Z,8.67
2023-01-27T18:22:26.255Z,8.97
2023-01-27T18:24:55.409Z,9.47
2023-01-27T18:27:25.104Z,7.60
2023-01-27T18:29:54.820Z,6.17
2023-01-27T18:32:24.423Z,5.97
2023-01-27T18:34:55.073Z,6.83
2023-01-27T18:37:26.910Z,6.53
2023-01-27T19:19:26.337Z,9.50
2023-01-27T19:21:53.400Z,10.83
2023-01-27T19:24:27.124Z,9.53
2023-01-27T19:26:57.191Z,8.63
2023-01-27T19:29:31.955Z,8.90
2023-01-27T19:31:59.097Z,7.67
2023-01-27T19:34:26.261Z,9.67
2023-01-27T19:36:53.407Z,11.17
2023-01-27T19:39:20.616Z,9.67
2023-01-27T19:41:47.432Z,9.77
2023-01-27T19:44:15.168Z,9.93
2023-01-27T19:46:43.052Z,10.70
2023-01-27T19:49:19.735Z,7.30
2023-01-27T19:51:46.827Z,10.90
2023-01-27T19:54:14.381Z,8.50
2023-01-27T19:56:41.588Z,9.13
2023-01-27T19:59:09.818Z,7.73
2023-01-27T20:01:36.820Z,7.70
2023-01-27T20:04:03.795Z,10.80
2023-01-27T20:06:31.707Z,8.87
2023-01-27T20:09:00.768Z,9.07
2023-01-27T20:11:39.207Z,8.33
2023-01-27T20:14:09.290Z,7.20
2023-01-27T20:16:36.211Z,8.23
2023-01-27T20:19:03.222Z,8.87
2023-01-27T20:21:31.533Z,10.87
2023-01-27T20:23:58.418Z,8.97
2023-01-27T20:26:26.110Z,10.17
2023-01-27T20:28:53.053Z,8.53
2023-01-27T20:31:24.964Z,9.93
2023-01-27T20:33:53.389Z,7.93
2023-01-27T20:36:22.005Z,8.67
2023-01-27T20:38:49.229Z,9.40
2023-01-27T20:41:18.111Z,9.70
2023-01-27T20:43:45.303Z,8.53
2023-01-27T20:46:15.248Z,8.80
2023-01-27T20:48:42.321Z,9.40
2023-01-27T20:51:11.521Z,8.20
2023-01-27T20:53:45.334Z,8.07
2023-01-27T20:56:17.604Z,8.23
2023-01-27T20:58:44.803Z,7.03
2023-01-27T21:01:17.159Z,7.83
2023-01-27T21:03:44.505Z,7.20
2023-01-27T21:06:12.978Z,5.63
2023-01-27T21:08:40.041Z,6.67
2023-01-27T21:11:10.725Z,8.07
2023-01-27T21:13:37.605Z,6.03
2023-01-27T21:16:04.689Z,5.53
2023-01-27T21:18:31.502Z,6.50
2023-01-27T21:21:02.856Z,6.47
2023-01-27T21:23:31.977Z,4.33
2023-01-27T21:26:04.543Z,5.77
2023-01-27T21:28:33.952Z,6.93
2023-01-27T21:31:08.751Z,4.43
2023-01-27T21:33:36.984Z,6.10
2023-01-27T21:36:05.712Z,4.50
2023-01-27T21:38:33.049Z,5.07
2023-01-27T21:41:10.905Z,5.37
2023-01-27T21:43:56.758Z,4.50
2023-01-27T21:46:23.693Z,6.83
2023-01-27T21:48:50.605Z,5.47
2023-01-27T21:51:18.085Z,5.57
2023-01-27T21:53:44.881Z,6.90
2023-01-27T21:56:12.691Z,7.80
2023-01-27T21:58:39.408Z,7.20
2023-01-27T22:01:10.181Z,4.80
2023-01-27T22:03:38.289Z,4.67
2023-01-27T22:06:09.201Z,5.03
2023-01-27T22:08:40.400Z,5.47
2023-01-27T22:11:11.650Z,6.33
2023-01-27T22:13:39.536Z,6.17
2023-01-27T22:16:07.328Z,9.03
2023-01-27T22:18:34.457Z,6.87
2023-01-27T22:21:01.697Z,5.60
2023-01-27T22:23:28.933Z,5.77
2023-01-27T22:25:55.841Z,5.27
2023-01-27T22:28:26.907Z,5.70
2023-01-27T22:30:54.242Z,7.53
2023-01-27T22:33:22.041Z,6.60
2023-01-27T22:35:49.641Z,5.10
2023-01-27T22:38:16.641Z,6.33
2023-01-27T22:40:43.655Z,9.33
2023-01-27T22:43:11.010Z,6.60
2023-01-27T22:45:39.391Z,7.03
2023-01-27T22:48:06.414Z,7.57
2023-01-27T22:50:36.774Z,7.80
2023-01-27T22:53:05.541Z,7.43
2023-01-27T22:55:32.954Z,10.87
2023-01-27T22:58:00.122Z,9.20
2023-01-27T23:00:27.132Z,10.07
2023-01-27T23:02:54.604Z,8.83
2023-01-27T23:05:21.534Z,8.37
2023-01-27T23:07:48.369Z,8.47
2023-01-27T23:10:16.403Z,8.17
2023-01-27T23:12:43.528Z,6.90
2023-01-27T23:15:11.723Z,8.23
2023-01-27T23:17:38.810Z,7.63
2023-01-27T23:20:06.400Z,11.40
2023-01-27T23:22:33.499Z,10.07
2023-01-27T23:25:01.358Z,8.53
2023-01-27T23:27:28.701Z,8.77
2023-01-27T23:29:55.772Z,7.33
2023-01-27T23:32:22.643Z,9.37
2023-01-27T23:34:50.527Z,10.07
2023-01-27T23:37:17.607Z,12.93
2023-01-27T23:39:48.651Z,9.03
2023-01-27T23:42:19.625Z,8.73
2023-01-27T23:44:47.047Z,8.83
2023-01-27T23:47:14.989Z,8.33
2023-01-27T23:49:42.049Z,8.27
2023-01-27T23:52:08.879Z,7.20
2023-01-27T23:54:36.415Z,7.67
2023-01-27T23:57:03.257Z,7.77
2023-01-27T23:59:30.012Z,8.33
